Time;durP1;ratioP1;P1;durP2;ratioP2;P2;SDS_P1;SDS_P2;PMS_P1;PMS_P2;Temp;Humidity;BMP_temperature;BMP_pressure;BME280_temperature;BME280_humidity;BME280_pressure;Samples;Min_cycle;Max_cycle;Signal;HPM_P1;HPM_P2
2023/01/23 00:02:45;;;;;;;19.40;8.68;;;3.70;87.00;;;;;;9173387;19;20471;-67
2023/01/23 00:05:59;;;;;;;18.38;8.70;;;3.60;86.90;;;;;;9175873;19;20033;-66
2023/01/23 00:09:03;;;;;;;18.95;8.70;;;3.70;86.90;;;;;;9177783;19;20018;-67
2023/01/23 00:12:04;;;;;;;19.02;8.68;;;3.70;87.00;;;;;;9173217;19;20102;-66
2023/01/23 00:15:10;;;;;;;18.70;8.77;;;3.70;86.90;;;;;;9177119;19;20025;-66
2023/01/23 00:18:11;;;;;;;17.02;7.65;;;3.70;87.00;;;;;;9176509;19;20029;-66
2023/01/23 00:21:17;;;;;;;14.43;8.90;;;3.70;87.00;;;;;;9176830;19;20029;-67
2023/01/23 00:24:19;;;;;;;;;;;3.70;87.00;;;;;;9178620;19;20014;-68
2023/01/23 00:27:22;;;;;;;19.02;8.32;;;3.70;87.00;;;;;;9172876;19;19910;-66
2023/01/23 00:30:23;;;;;;;21.50;8.20;;;3.70;86.90;;;;;;9176367;19;20625;-66
2023/01/23 00:33:27;;;;;;;14.80;7.65;;;3.60;86.90;;;;;;9175747;19;20030;-68
2023/01/23 00:36:32;;;;;;;16.80;8.00;;;3.70;86.90;;;;;;9176052;19;20349;-68
2023/01/23 00:39:35;;;;;;;18.67;8.57;;;3.70;87.00;;;;;;9176125;19;20015;-66
2023/01/23 00:42:37;;;;;;;22.38;9.18;;;3.70;87.00;;;;;;9175973;19;20025;-67
2023/01/23 00:45:40;;;;;;;19.48;8.02;;;3.70;87.00;;;;;;9175706;19;20033;-66
2023/01/23 00:48:42;;;;;;;18.45;8.52;;;3.70;87.00;;;;;;9177174;19;20097;-67
2023/01/23 00:51:45;;;;;;;;;;;3.70;87.00;;;;;;9184336;19;20363;-67
2023/01/23 00:54:47;;;;;;;19.38;8.73;;;3.70;87.00;;;;;;9184637;19;20332;-68
2023/01/23 00:57:50;;;;;;;15.80;7.75;;;3.70;86.90;;;;;;9181678;19;20022;-69
2023/01/23 01:00:52;;;;;;;21.80;9.10;;;3.70;87.00;;;;;;9183693;19;20011;-67
2023/01/23 01:03:56;;;;;;;15.75;7.90;;;3.60;87.00;;;;;;9177020;19;20029;-66
2023/01/23 01:06:58;;;;;;;18.60;8.27;;;3.70;87.10;;;;;;9181581;19;20019;-67
2023/01/23 01:10:02;;;;;;;20.27;9.05;;;3.70;87.00;;;;;;9181865;19;20024;-67
2023/01/23 01:13:03;;;;;;;23.02;8.35;;;3.70;87.10;;;;;;9182761;19;20017;-66
2023/01/23 01:16:07;;;;;;;19.83;8.25;;;3.70;87.10;;;;;;9183232;19;20463;-68
2023/01/23 01:19:11;;;;;;;17.52;8.05;;;3.70;87.10;;;;;;9182908;19;20351;-68
2023/01/23 01:22:15;;;;;;;17.88;8.32;;;3.70;87.10;;;;;;9180961;19;20010;-66
2023/01/23 01:25:16;;;;;;;16.85;8.10;;;3.70;87.10;;;;;;9182850;19;20006;-66
2023/01/23 01:28:20;;;;;;;;;;;3.60;87.10;;;;;;9183018;19;20113;-66
2023/01/23 01:31:22;;;;;;;17.00;7.95;;;3.70;87.10;;;;;;9180750;19;19918;-67
2023/01/23 01:34:25;;;;;;;16.55;8.27;;;3.70;87.00;;;;;;9182003;19;20014;-66
2023/01/23 01:37:27;;;;;;;21.60;8.60;;;3.70;87.10;;;;;;9182304;19;20010;-66
2023/01/23 01:40:33;;;;;;;16.60;8.60;;;3.70;87.20;;;;;;9183009;19;20029;-67
2023/01/23 01:43:35;;;;;;;19.40;8.70;;;3.60;87.10;;;;;;9181692;19;20022;-68
2023/01/23 01:46:39;;;;;;;18.73;8.50;;;3.70;87.20;;;;;;9178739;19;20019;-68
2023/01/23 01:49:41;;;;;;;19.17;8.93;;;3.70;87.20;;;;;;9180274;19;20029;-67
2023/01/23 01:52:45;;;;;;;19.38;8.93;;;3.70;87.20;;;;;;9180510;19;20034;-67
2023/01/23 01:55:48;;;;;;;29.20;9.15;;;3.70;87.20;;;;;;9178962;19;20090;-68
2023/01/23 01:58:52;;;;;;;21.92;10.25;;;3.70;87.20;;;;;;9180047;19;20478;-68
2023/01/23 02:02:03;;;;;;;21.80;11.13;;;3.70;87.10;;;;;;9180605;19;20010;-68
2023/01/23 02:05:15;;;;;;;39.38;16.58;;;3.70;87.20;;;;;;9177720;19;20018;-67
2023/01/23 02:08:41;;;;;;;28.27;13.45;;;3.70;87.30;;;;;;9178262;19;20125;-68
2023/01/23 02:11:45;;;;;;;18.63;8.95;;;3.70;87.20;;;;;;9176508;19;20042;-68
2023/01/23 02:14:46;;;;;;;18.48;8.27;;;3.70;87.20;;;;;;9181122;19;20347;-67
2023/01/23 02:17:51;;;;;;;23.02;8.52;;;3.70;87.20;;;;;;9176314;19;20010;-66
2023/01/23 02:20:56;;;;;;;19.98;8.18;;;3.70;87.20;;;;;;9180838;19;20018;-66
2023/01/23 02:24:15;;;;;;;15.00;7.60;;;3.70;87.20;;;;;;9180594;19;20026;-66
2023/01/23 02:27:17;;;;;;;17.90;8.90;;;3.70;87.30;;;;;;9178784;19;20025;-68
2023/01/23 02:30:21;;;;;;;17.55;8.77;;;3.70;87.30;;;;;;9179378;19;20022;-68
2023/01/23 02:33:25;;;;;;;22.50;8.50;;;3.70;87.20;;;;;;9177865;19;20102;-66
2023/01/23 02:36:31;;;;;;;;;;;3.70;87.20;;;;;;9178335;19;20015;-66
2023/01/23 02:39:35;;;;;;;17.73;8.20;;;3.70;87.20;;;;;;9178710;19;19914;-66
2023/01/23 02:42:43;;;;;;;18.58;8.38;;;3.70;87.20;;;;;;9178233;19;20321;-66
2023/01/23 02:45:47;;;;;;;16.13;9.00;;;3.70;87.20;;;;;;9178073;19;20014;-67
2023/01/23 02:48:52;;;;;;;21.13;9.20;;;3.70;87.20;;;;;;9179187;19;20018;-67
2023/01/23 02:51:55;;;;;;;18.67;8.60;;;3.70;87.20;;;;;;9177976;19;20014;-68
2023/01/23 02:54:59;;;;;;;18.67;8.68;;;3.70;87.20;;;;;;9179580;19;20019;-67
2023/01/23 03:01:24;;;;;;;15.65;7.95;;;3.80;87.30;;;;;;9178357;19;20022;-67
2023/01/23 03:04:26;;;;;;;24.40;8.52;;;3.80;87.20;;;;;;9173654;19;20039;-66
2023/01/23 03:07:30;;;;;;;22.15;8.40;;;3.80;87.20;;;;;;9176817;19;20010;-67
2023/01/23 03:10:31;;;;;;;16.45;8.02;;;3.80;87.30;;;;;;9177751;19;20018;-66
2023/01/23 03:13:35;;;;;;;18.98;8.73;;;3.70;87.20;;;;;;9175034;19;20019;-66
2023/01/23 03:16:40;;;;;;;;;;;3.80;87.30;;;;;;9179141;19;20010;-68
2023/01/23 03:19:43;;;;;;;;;;;3.70;87.30;;;;;;9178977;19;19919;-68
2023/01/23 03:22:45;;;;;;;15.25;7.05;;;3.70;87.20;;;;;;9177368;19;19915;-66
2023/01/23 03:25:57;;;;;;;16.20;7.72;;;3.70;87.10;;;;;;9176884;19;20020;-68
2023/01/23 03:32:24;;;;;;;17.73;8.68;;;3.70;87.20;;;;;;9178824;19;20017;-66
2023/01/23 03:35:27;;;;;;;;;;;3.70;87.20;;;;;;9178105;19;20006;-66
2023/01/23 03:38:31;;;;;;;19.52;9.43;;;3.70;87.20;;;;;;9176538;19;19930;-66
2023/01/23 03:41:33;;;;;;;17.38;8.63;;;3.70;86.70;;;;;;9178381;19;20675;-67
2023/01/23 03:44:39;;;;;;;18.58;8.60;;;3.70;87.20;;;;;;9176812;19;20101;-67
2023/01/23 03:47:41;;;;;;;16.35;7.97;;;3.70;87.30;;;;;;9173541;19;20014;-68
2023/01/23 03:50:44;;;;;;;19.90;8.77;;;3.70;87.30;;;;;;9177039;19;20026;-67
2023/01/23 03:53:46;;;;;;;20.08;8.80;;;3.70;87.30;;;;;;9178272;19;20473;-67
2023/01/23 03:56:50;;;;;;;21.48;8.35;;;3.70;87.30;;;;;;9176598;19;20018;-67
2023/01/23 04:00:13;;;;;;;23.85;8.68;;;3.70;87.30;;;;;;9176433;19;20010;-66
2023/01/23 04:03:39;;;;;;;19.63;8.27;;;3.70;87.40;;;;;;9173076;19;20387;-66
2023/01/23 04:06:41;;;;;;;22.80;8.07;;;3.70;87.40;;;;;;9174131;19;20394;-67
2023/01/23 04:09:46;;;;;;;13.23;7.80;;;3.70;87.40;;;;;;9174514;19;20030;-66
2023/01/23 04:12:48;;;;;;;17.80;7.88;;;3.70;87.40;;;;;;9175384;19;20475;-67
2023/01/23 04:15:51;;;;;;;16.23;8.20;;;3.70;87.40;;;;;;9176728;19;20325;-66
2023/01/23 04:18:53;;;;;;;16.92;8.57;;;3.70;87.40;;;;;;9175570;19;20015;-68
2023/01/23 04:21:58;;;;;;;17.55;8.77;;;3.70;87.40;;;;;;9174778;19;20114;-68
2023/01/23 04:25:00;;;;;;;20.17;8.30;;;3.70;87.40;;;;;;9179673;19;20010;-67
2023/01/23 04:28:03;;;;;;;19.20;8.32;;;3.70;87.40;;;;;;9182774;19;20479;-66
2023/01/23 04:31:05;;;;;;;15.05;7.43;;;3.70;87.90;;;;;;9182416;19;20499;-66
2023/01/23 04:34:10;;;;;;;19.45;7.63;;;3.70;87.40;;;;;;9182668;19;20015;-67
2023/01/23 04:37:13;;;;;;;21.08;9.82;;;3.70;87.40;;;;;;9182814;19;20364;-66
2023/01/23 04:40:17;;;;;;;19.27;8.32;;;3.70;87.40;;;;;;9184647;19;20023;-69
2023/01/23 04:43:29;;;;;;;19.48;8.32;;;3.70;87.40;;;;;;9182257;19;20019;-68
2023/01/23 04:46:33;;;;;;;16.23;8.57;;;3.80;87.40;;;;;;9181542;19;20026;-66
2023/01/23 04:49:42;;;;;;;18.95;8.35;;;3.80;87.40;;;;;;9182302;19;20026;-67
2023/01/23 04:52:46;;;;;;;13.80;8.48;;;3.80;87.40;;;;;;9182201;19;20026;-68
2023/01/23 04:55:48;;;;;;;17.58;8.20;;;3.80;87.40;;;;;;9184055;19;20729;-66
2023/01/23 04:58:53;;;;;;;17.08;8.23;;;3.80;87.40;;;;;;9182321;19;20010;-67
2023/01/23 05:01:56;;;;;;;17.17;8.48;;;3.80;87.40;;;;;;9182087;19;20480;-66
2023/01/23 05:05:01;;;;;;;15.70;8.40;;;3.80;87.40;;;;;;9176757;19;20486;-67
2023/01/23 05:08:03;;;;;;;21.77;8.85;;;3.80;87.40;;;;;;9179283;19;20040;-67
2023/01/23 05:11:06;;;;;;;18.67;8.23;;;3.80;87.40;;;;;;9179410;19;20021;-67
2023/01/23 05:14:08;;;;;;;19.20;8.98;;;3.80;87.40;;;;;;9181280;19;20333;-67
2023/01/23 05:17:11;;;;;;;20.35;8.25;;;3.80;87.40;;;;;;9181569;19;20019;-67
2023/01/23 05:20:22;;;;;;;29.88;9.45;;;3.80;87.40;;;;;;9181779;19;20256;-68
2023/01/23 05:23:26;;;;;;;20.25;9.98;;;3.80;87.30;;;;;;9182975;19;20483;-67
2023/01/23 05:26:28;;;;;;;18.20;9.05;;;3.80;87.40;;;;;;9180508;19;20020;-67
2023/01/23 05:29:32;;;;;;;26.63;9.05;;;3.80;87.40;;;;;;9180682;19;20011;-67
2023/01/23 05:32:42;;;;;;;21.30;8.70;;;3.80;87.40;;;;;;9180730;19;20011;-67
2023/01/23 05:36:00;;;;;;;20.63;9.88;;;3.80;87.50;;;;;;9180339;19;20025;-67
2023/01/23 05:39:02;;;;;;;21.70;9.60;;;3.80;87.50;;;;;;9180736;19;20474;-67
2023/01/23 05:42:06;;;;;;;27.13;9.93;;;3.70;87.40;;;;;;9180367;19;20033;-67
2023/01/23 05:45:25;;;;;;;20.85;9.25;;;3.80;87.50;;;;;;9178042;19;20544;-66
2023/01/23 05:48:29;;;;;;;;;;;3.70;87.50;;;;;;9176815;19;20018;-67
2023/01/23 05:51:32;;;;;;;22.75;9.63;;;3.80;87.50;;;;;;9180387;19;19921;-67
2023/01/23 05:54:36;;;;;;;20.38;10.93;;;3.80;87.40;;;;;;9179197;19;20014;-68
2023/01/23 05:57:38;;;;;;;21.02;9.65;;;3.80;87.50;;;;;;9179666;19;20032;-68
2023/01/23 06:01:14;;;;;;;24.33;10.32;;;3.80;87.50;;;;;;9180310;19;20033;-68
2023/01/23 06:04:34;;;;;;;20.15;11.05;;;3.80;87.40;;;;;;9174508;19;20032;-68
2023/01/23 06:07:47;;;;;;;20.02;11.15;;;3.80;87.40;;;;;;9177524;19;20429;-67
2023/01/23 06:10:49;;;;;;;25.35;12.05;;;3.80;87.50;;;;;;9177750;19;20014;-68
2023/01/23 06:13:54;;;;;;;21.45;11.43;;;3.80;87.50;;;;;;9179588;19;20022;-67
2023/01/23 06:16:56;;;;;;;19.13;11.10;;;3.80;87.50;;;;;;9179234;19;20017;-67
2023/01/23 06:20:00;;;;;;;23.20;11.90;;;3.80;87.50;;;;;;9179148;19;20022;-67
2023/01/23 06:23:02;;;;;;;20.95;10.90;;;3.80;87.60;;;;;;9179161;19;20022;-67
2023/01/23 06:26:05;;;;;;;28.25;11.80;;;3.80;87.50;;;;;;9178585;19;20010;-67
2023/01/23 06:29:08;;;;;;;24.08;11.70;;;3.80;87.50;;;;;;9178953;19;20018;-67
2023/01/23 06:32:12;;;;;;;;;;;3.80;87.60;;;;;;9179826;19;20114;-67
2023/01/23 06:35:14;;;;;;;25.00;11.32;;;3.80;87.60;;;;;;9178883;19;20353;-67
2023/01/23 06:38:19;;;;;;;32.88;15.85;;;3.80;87.50;;;;;;9178415;19;20030;-67
2023/01/23 06:41:23;;;;;;;55.92;23.23;;;3.80;87.60;;;;;;9179613;19;20022;-67
2023/01/23 06:44:29;;;;;;;34.10;16.92;;;3.80;87.50;;;;;;9178668;19;20011;-67
2023/01/23 06:47:31;;;;;;;24.67;12.00;;;3.80;87.60;;;;;;9173634;19;20027;-67
2023/01/23 06:50:37;;;;;;;22.92;12.68;;;3.80;87.50;;;;;;9179830;19;20021;-67
2023/01/23 06:53:39;;;;;;;37.20;13.60;;;3.80;87.50;;;;;;9177834;19;20435;-68
2023/01/23 06:56:43;;;;;;;29.27;12.10;;;3.80;87.50;;;;;;9177379;19;20022;-67
2023/01/23 06:59:45;;;;;;;23.75;13.07;;;3.80;87.50;;;;;;9175357;19;20015;-68
2023/01/23 07:02:51;;;;;;;22.88;13.35;;;3.80;87.60;;;;;;9170071;19;20014;-67
2023/01/23 07:05:53;;;;;;;25.02;12.57;;;3.80;87.60;;;;;;9177408;19;20006;-67
2023/01/23 07:08:56;;;;;;;24.75;13.40;;;3.80;87.70;;;;;;9179211;19;20014;-67
2023/01/23 07:11:59;;;;;;;25.85;13.15;;;3.80;87.60;;;;;;9172570;19;20022;-67
2023/01/23 07:15:06;;;;;;;24.40;12.77;;;3.80;87.60;;;;;;9163607;19;20025;-66
2023/01/23 07:18:12;;;;;;;28.80;12.55;;;3.80;87.70;;;;;;9167090;19;20487;-67
2023/01/23 07:21:15;;;;;;;27.45;12.65;;;3.80;87.60;;;;;;9166923;19;20014;-67
2023/01/23 07:24:17;;;;;;;24.33;13.27;;;3.80;87.70;;;;;;9166602;19;20011;-67
2023/01/23 07:27:20;;;;;;;30.88;14.48;;;3.80;87.70;;;;;;9165976;19;20010;-67
2023/01/23 07:30:22;;;;;;;24.55;13.00;;;3.80;87.70;;;;;;9165151;19;20046;-67
2023/01/23 07:33:27;;;;;;;31.98;13.75;;;3.80;87.70;;;;;;9165359;19;20014;-67
2023/01/23 07:36:29;;;;;;;27.77;14.52;;;3.80;87.70;;;;;;9165688;19;20021;-67
2023/01/23 07:39:32;;;;;;;;;;;3.80;87.70;;;;;;9171024;19;20014;-67
2023/01/23 07:42:34;;;;;;;27.17;13.48;;;3.80;87.70;;;;;;9174295;19;19922;-67
2023/01/23 07:45:37;;;;;;;22.52;13.20;;;3.90;87.70;;;;;;9173864;19;20010;-67
2023/01/23 07:48:39;;;;;;;26.30;13.35;;;3.80;87.60;;;;;;9167325;19;20018;-67
2023/01/23 07:51:43;;;;;;;39.50;14.35;;;3.90;87.70;;;;;;9172622;19;20021;-67
2023/01/23 07:54:44;;;;;;;37.85;14.68;;;3.90;87.80;;;;;;9177280;19;20014;-67
2023/01/23 07:57:48;;;;;;;32.78;14.85;;;3.90;87.80;;;;;;9176062;19;20053;-67
2023/01/23 08:00:49;;;;;;;31.98;14.15;;;3.80;87.70;;;;;;9179128;19;20470;-67
2023/01/23 08:03:53;;;;;;;27.70;13.77;;;3.90;87.80;;;;;;9173243;19;20363;-67
2023/01/23 08:06:55;;;;;;;33.00;15.23;;;3.90;87.80;;;;;;9176039;19;20021;-67
2023/01/23 08:09:58;;;;;;;30.23;14.30;;;3.90;87.90;;;;;;9175905;19;20026;-67
2023/01/23 08:13:00;;;;;;;31.85;14.60;;;3.90;87.90;;;;;;9176815;19;20019;-67
2023/01/23 08:16:04;;;;;;;38.80;16.63;;;3.90;87.90;;;;;;9177373;19;20018;-67
2023/01/23 08:19:07;;;;;;;23.50;10.45;;;3.90;87.80;;;;;;9177755;19;20011;-67
2023/01/23 08:22:10;;;;;;;37.25;16.20;;;3.90;87.80;;;;;;9176449;19;20022;-67
2023/01/23 08:25:12;;;;;;;32.58;14.80;;;3.90;87.90;;;;;;9176272;19;20506;-67
2023/01/23 08:28:15;;;;;;;34.00;15.40;;;3.90;87.80;;;;;;9173786;19;20015;-67
2023/01/23 08:31:17;;;;;;;32.60;15.30;;;3.90;87.90;;;;;;9171378;19;20026;-68
2023/01/23 08:34:22;;;;;;;29.30;13.10;;;3.90;87.90;;;;;;9175053;19;20025;-68
2023/01/23 08:37:24;;;;;;;23.10;12.82;;;3.90;87.90;;;;;;9173540;19;20925;-68
2023/01/23 08:40:28;;;;;;;28.80;14.82;;;3.90;87.90;;;;;;9169044;19;20018;-68
2023/01/23 08:43:30;;;;;;;26.33;12.82;;;3.90;87.90;;;;;;9169528;19;20038;-66
2023/01/23 08:46:33;;;;;;;31.65;14.38;;;4.00;88.00;;;;;;9170099;19;20026;-67
2023/01/23 08:49:35;;;;;;;27.20;13.13;;;3.90;87.90;;;;;;9171676;19;20026;-66
2023/01/23 08:52:39;;;;;;;26.50;13.65;;;3.90;87.90;;;;;;9168691;19;20019;-67
2023/01/23 08:55:40;;;;;;;36.22;13.50;;;4.00;88.00;;;;;;9174548;19;20467;-67
2023/01/23 08:58:45;;;;;;;26.10;13.35;;;4.00;88.00;;;;;;9175577;19;20018;-66
2023/01/23 09:01:46;;;;;;;22.77;12.63;;;4.00;88.00;;;;;;9170412;19;20021;-68
2023/01/23 09:04:50;;;;;;;;;;;4.00;88.00;;;;;;9163468;19;20006;-67
2023/01/23 09:07:51;;;;;;;27.40;13.13;;;4.00;87.90;;;;;;9167404;19;19915;-68
2023/01/23 09:11:00;;;;;;;34.95;15.50;;;4.00;87.90;;;;;;9171124;19;20530;-68
2023/01/23 09:14:01;;;;;;;26.35;14.65;;;4.00;87.90;;;;;;9177847;19;20025;-68
2023/01/23 09:17:05;;;;;;;30.90;14.98;;;4.00;88.50;;;;;;9178380;19;20011;-66
2023/01/23 09:20:08;;;;;;;26.45;13.95;;;4.10;87.90;;;;;;9179483;19;20467;-68
2023/01/23 09:23:11;;;;;;;26.23;13.70;;;4.00;87.90;;;;;;9178210;19;20014;-68
2023/01/23 09:26:14;;;;;;;26.58;13.80;;;4.00;88.10;;;;;;9177820;19;20014;-67
2023/01/23 09:29:17;;;;;;;22.83;12.88;;;4.10;88.10;;;;;;9175955;19;20019;-67
2023/01/23 09:32:19;;;;;;;25.98;13.13;;;4.10;88.10;;;;;;9177111;19;20023;-68
2023/01/23 09:35:22;;;;;;;30.33;13.63;;;4.10;88.00;;;;;;9177760;19;20026;-68
2023/01/23 09:38:24;;;;;;;24.60;13.02;;;4.10;88.10;;;;;;9179026;19;20464;-68
2023/01/23 09:41:28;;;;;;;;;;;4.20;88.10;;;;;;9182940;19;20010;-67
2023/01/23 09:44:41;;;;;;;24.75;12.60;;;4.20;88.10;;;;;;9179476;19;19930;-67
2023/01/23 09:47:48;;;;;;;25.67;12.88;;;4.20;88.00;;;;;;9167982;19;20110;-67
2023/01/23 09:50:58;;;;;;;19.70;11.77;;;4.20;88.00;;;;;;9180325;19;20021;-67
2023/01/23 09:54:15;;;;;;;25.48;13.02;;;4.30;88.10;;;;;;9178123;19;20050;-70
2023/01/23 09:57:21;;;;;;;22.98;12.07;;;4.30;88.10;;;;;;9173481;19;20018;-69
2023/01/23 10:00:35;;;;;;;24.17;12.35;;;4.30;88.10;;;;;;9178878;19;20015;-70
2023/01/23 10:03:37;;;;;;;21.33;11.73;;;4.30;88.10;;;;;;9176033;19;20010;-70
2023/01/23 10:06:50;;;;;;;;;;;4.40;88.10;;;;;;9181590;19;20025;-70
2023/01/23 10:10:35;;;;;;;19.25;10.00;;;4.40;88.00;;;;;;9175814;19;19963;-70
2023/01/23 10:13:58;;;;;;;22.85;10.70;;;4.50;88.00;;;;;;9176728;19;20014;-69
2023/01/23 10:17:28;;;;;;;19.10;11.13;;;4.50;87.90;;;;;;9177508;19;20037;-70
2023/01/23 10:20:43;;;;;;;20.23;10.90;;;4.50;88.00;;;;;;9172996;19;20698;-69
2023/01/23 10:24:18;;;;;;;26.90;11.65;;;4.50;88.00;;;;;;9172445;19;20398;-69
2023/01/23 10:27:44;;;;;;;18.50;10.88;;;4.60;88.00;;;;;;9172424;19;20006;-69
2023/01/23 10:30:53;;;;;;;22.23;11.20;;;4.50;88.00;;;;;;9163932;19;20596;-70
2023/01/23 10:34:08;;;;;;;24.25;11.48;;;4.60;88.00;;;;;;9170315;19;20014;-69
2023/01/23 10:37:21;;;;;;;25.17;12.97;;;4.60;88.00;;;;;;9170861;19;20071;-69
2023/01/23 10:43:50;;;;;;;20.90;11.85;;;4.70;88.00;;;;;;9173305;19;20125;-69
2023/01/23 10:46:58;;;;;;;19.10;11.13;;;4.70;88.00;;;;;;9174632;19;20443;-69
2023/01/23 10:50:01;;;;;;;27.83;12.02;;;4.70;88.00;;;;;;9168587;19;20025;-69
2023/01/23 10:53:07;;;;;;;36.78;13.00;;;4.70;88.00;;;;;;9161701;19;20025;-70
2023/01/23 10:56:15;;;;;;;26.95;12.98;;;4.80;88.10;;;;;;9170946;19;20007;-70
2023/01/23 10:59:50;;;;;;;23.90;11.00;;;4.80;88.00;;;;;;9162615;19;20019;-69
2023/01/23 11:02:51;;;;;;;20.98;11.15;;;4.80;87.90;;;;;;9168424;19;20018;-69
2023/01/23 11:06:04;;;;;;;22.65;11.60;;;4.80;87.90;;;;;;9168460;19;20014;-70
2023/01/23 11:09:18;;;;;;;20.27;11.77;;;4.90;87.90;;;;;;9169331;19;20018;-70
2023/01/23 11:12:31;;;;;;;22.75;12.90;;;4.90;87.90;;;;;;9173337;19;20010;-69
2023/01/23 11:15:37;;;;;;;27.10;12.98;;;4.90;87.90;;;;;;9171960;19;20018;-70
2023/01/23 11:18:52;;;;;;;23.63;11.50;;;4.90;87.90;;;;;;9167843;19;20018;-69
2023/01/23 11:21:59;;;;;;;21.58;12.20;;;5.00;88.00;;;;;;9162769;19;20015;-70
2023/01/23 11:25:27;;;;;;;29.38;12.52;;;5.00;87.90;;;;;;9164372;19;20524;-70
2023/01/23 11:28:33;;;;;;;24.77;11.90;;;5.00;87.90;;;;;;9168170;19;20039;-69
2023/01/23 11:31:40;;;;;;;25.00;11.80;;;5.00;87.90;;;;;;9158996;19;20018;-68
2023/01/23 11:34:49;;;;;;;22.60;13.27;;;5.10;87.90;;;;;;9159939;19;20022;-69
2023/01/23 11:37:55;;;;;;;19.17;11.48;;;5.10;87.80;;;;;;9163793;19;20583;-68
2023/01/23 11:40:57;;;;;;;26.73;12.88;;;5.10;87.80;;;;;;9161575;19;20051;-69
2023/01/23 11:44:07;;;;;;;21.50;12.10;;;5.10;87.80;;;;;;9163012;19;20010;-70
2023/01/23 11:47:42;;;;;;;21.08;11.55;;;5.20;87.80;;;;;;9156634;19;20487;-69
2023/01/23 11:50:52;;;;;;;22.83;12.20;;;5.20;87.80;;;;;;9159403;19;20010;-69
2023/01/23 11:54:11;;;;;;;21.55;11.40;;;5.20;87.60;;;;;;9156842;19;20374;-70
2023/01/23 11:57:45;;;;;;;23.98;12.65;;;5.30;87.70;;;;;;9160052;19;20025;-69
2023/01/23 12:01:19;;;;;;;21.40;12.43;;;5.30;87.70;;;;;;9157276;19;20085;-69
2023/01/23 12:04:42;;;;;;;23.50;12.70;;;5.30;87.70;;;;;;9159596;19;20015;-68
2023/01/23 12:07:52;;;;;;;24.45;12.57;;;5.40;87.60;;;;;;9157550;19;20018;-68
2023/01/23 12:11:19;;;;;;;22.00;11.60;;;5.40;87.60;;;;;;9165219;19;20018;-68
2023/01/23 12:14:33;;;;;;;18.05;11.18;;;5.40;87.60;;;;;;9168696;19;20014;-69
2023/01/23 12:17:55;;;;;;;21.58;10.68;;;5.50;87.60;;;;;;9172653;19;20010;-69
2023/01/23 12:21:10;;;;;;;18.67;9.57;;;5.50;88.10;;;;;;9163168;19;20018;-69
2023/01/23 12:24:31;;;;;;;20.23;10.98;;;5.40;87.50;;;;;;9167219;19;20014;-69
2023/01/23 12:27:39;;;;;;;16.27;9.93;;;5.50;87.50;;;;;;9171021;19;20024;-69
2023/01/23 12:31:03;;;;;;;17.52;10.07;;;5.50;88.10;;;;;;9170969;19;20015;-69
2023/01/23 12:34:41;;;;;;;20.67;9.82;;;5.50;87.50;;;;;;9168657;19;20474;-69
2023/01/23 12:38:20;;;;;;;13.93;8.73;;;5.60;87.50;;;;;;9168078;19;20486;-69
2023/01/23 12:41:40;;;;;;;17.85;9.70;;;5.60;87.40;;;;;;9169860;19;20014;-69
2023/01/23 12:45:13;;;;;;;15.98;10.65;;;5.60;87.30;;;;;;9174871;19;20025;-69
2023/01/23 12:48:23;;;;;;;17.15;9.60;;;5.60;87.30;;;;;;9178067;19;20022;-68
2023/01/23 12:51:35;;;;;;;14.15;9.38;;;5.60;87.30;;;;;;9182129;19;20010;-70
2023/01/23 12:54:42;;;;;;;17.40;9.13;;;5.60;87.20;;;;;;9176193;19;20018;-69
2023/01/23 12:57:50;;;;;;;16.00;9.73;;;5.60;87.20;;;;;;9175326;19;20010;-68
2023/01/23 13:01:23;;;;;;;18.48;9.27;;;5.60;87.20;;;;;;9171391;19;20054;-69
2023/01/23 13:04:48;;;;;;;20.52;9.65;;;5.60;87.10;;;;;;9166562;19;20042;-69
2023/01/23 13:08:24;;;;;;;15.55;9.57;;;5.60;87.10;;;;;;9166002;19;20025;-70
2023/01/23 13:11:42;;;;;;;19.02;9.52;;;5.60;87.10;;;;;;9172381;19;20014;-70
2023/01/23 13:14:44;;;;;;;16.98;9.38;;;5.60;87.10;;;;;;9172137;19;20043;-70
2023/01/23 13:18:28;;;;;;;;;;;5.70;87.10;;;;;;9176393;19;20406;-70
2023/01/23 13:25:16;;;;;;;19.52;10.13;;;5.70;87.00;;;;;;9171993;19;20991;-70
2023/01/23 13:28:41;;;;;;;16.70;9.65;;;5.70;87.00;;;;;;9168623;19;20510;-70
2023/01/23 13:31:51;;;;;;;23.80;9.73;;;5.70;87.10;;;;;;9168055;19;20014;-70
2023/01/23 13:34:53;;;;;;;19.48;10.55;;;5.70;87.00;;;;;;9171990;19;20030;-68
2023/01/23 13:37:58;;;;;;;17.90;10.38;;;5.70;87.10;;;;;;9175259;19;20309;-68
2023/01/23 13:41:03;;;;;;;20.80;11.50;;;5.70;87.10;;;;;;9175715;19;20025;-68
2023/01/23 13:44:18;;;;;;;20.17;11.15;;;5.70;87.00;;;;;;9181200;19;20022;-68
2023/01/23 13:51:21;;;;;;;24.37;11.90;;;5.70;87.00;;;;;;9169956;19;20021;-68
2023/01/23 13:58:20;;;;;;;16.33;9.52;;;5.80;87.00;;;;;;9161230;19;20014;-69
2023/01/23 14:05:28;;;;;;;24.67;11.10;;;5.70;86.90;;;;;;9172725;19;20026;-68
2023/01/23 14:08:52;;;;;;;20.98;11.40;;;5.80;86.90;;;;;;9169373;19;20019;-69
2023/01/23 14:12:27;;;;;;;22.08;11.15;;;5.70;86.80;;;;;;9168303;19;20018;-69
2023/01/23 14:16:09;;;;;;;19.45;10.65;;;5.80;86.90;;;;;;9154320;19;20014;-68
2023/01/23 14:19:56;;;;;;;21.02;11.23;;;5.70;86.80;;;;;;9158541;19;20381;-68
2023/01/23 14:23:33;;;;;;;17.05;10.75;;;5.80;86.80;;;;;;9157620;19;20015;-68
2023/01/23 14:26:49;;;;;;;20.70;11.57;;;5.80;86.80;;;;;;9164830;19;20014;-68
2023/01/23 14:30:02;;;;;;;20.52;12.00;;;5.80;86.70;;;;;;9167649;19;20019;-68
2023/01/23 14:33:16;;;;;;;22.42;12.60;;;5.80;86.70;;;;;;9165512;19;20030;-67
2023/01/23 14:36:18;;;;;;;23.23;11.65;;;5.70;86.70;;;;;;9162117;19;20018;-69
2023/01/23 14:39:26;;;;;;;23.15;13.18;;;5.80;86.80;;;;;;9160694;19;20007;-68
2023/01/23 14:42:29;;;;;;;21.88;12.23;;;5.70;86.80;;;;;;9167943;19;20024;-69
2023/01/23 14:45:34;;;;;;;20.70;12.63;;;5.70;86.70;;;;;;9175145;19;20015;-68
2023/01/23 14:48:39;;;;;;;25.10;12.52;;;5.70;86.70;;;;;;9177300;19;20021;-69
2023/01/23 14:51:55;;;;;;;22.63;13.25;;;5.80;86.70;;;;;;9179353;19;20014;-69
2023/01/23 14:54:58;;;;;;;21.52;11.85;;;5.70;86.60;;;;;;9179136;19;20022;-69
2023/01/23 14:58:21;;;;;;;20.35;12.30;;;5.80;86.70;;;;;;9175691;19;20010;-69
2023/01/23 15:01:23;;;;;;;29.80;12.75;;;5.80;86.70;;;;;;9178467;19;20554;-69
2023/01/23 15:04:28;;;;;;;24.48;12.40;;;5.80;86.60;;;;;;9177958;19;20019;-69
2023/01/23 15:07:30;;;;;;;23.83;12.67;;;5.80;86.60;;;;;;9172940;19;20490;-69
2023/01/23 15:10:42;;;;;;;20.90;11.18;;;5.80;86.50;;;;;;9174778;19;20349;-70
2023/01/23 15:13:49;;;;;;;27.10;13.35;;;5.70;86.50;;;;;;9176101;19;20592;-69
2023/01/23 15:17:17;;;;;;;28.52;12.48;;;5.70;86.50;;;;;;9176347;19;20010;-67
2023/01/23 15:20:37;;;;;;;21.77;11.65;;;5.70;86.40;;;;;;9175052;19;20028;-68
2023/01/23 15:23:59;;;;;;;18.65;11.38;;;5.70;86.40;;;;;;9174204;19;20018;-69
2023/01/23 15:27:02;;;;;;;24.38;12.20;;;5.70;86.40;;;;;;9174839;19;20542;-68
2023/01/23 15:30:38;;;;;;;21.00;11.05;;;5.70;87.00;;;;;;9173341;19;20011;-69
2023/01/23 15:33:41;;;;;;;;;;;5.70;86.30;;;;;;9175251;19;20054;-67
2023/01/23 15:37:11;;;;;;;;;;;5.70;86.40;;;;;;9175436;19;19933;-67
2023/01/23 15:40:18;;;;;;;21.77;11.05;;;5.70;86.40;;;;;;9174133;19;19932;-69
2023/01/23 15:43:21;;;;;;;16.95;10.98;;;5.70;86.40;;;;;;9174814;19;20015;-69
2023/01/23 15:46:23;;;;;;;19.58;11.15;;;5.70;86.40;;;;;;9174567;19;20017;-67
2023/01/23 15:49:28;;;;;;;24.05;11.88;;;5.70;86.40;;;;;;9170492;19;20022;-68
2023/01/23 15:52:46;;;;;;;20.80;11.07;;;5.60;86.30;;;;;;9170960;19;20608;-69
2023/01/23 15:55:50;;;;;;;25.80;12.50;;;5.60;86.30;;;;;;9176478;19;20028;-68
2023/01/23 15:58:52;;;;;;;21.88;11.45;;;5.60;86.30;;;;;;9173305;19;20452;-69
2023/01/23 16:01:55;;;;;;;20.92;11.20;;;5.60;86.30;;;;;;9175829;19;20487;-67
2023/01/23 16:04:57;;;;;;;22.58;12.23;;;5.60;86.30;;;;;;9176901;19;20010;-68
2023/01/23 16:08:02;;;;;;;;;;;5.60;86.40;;;;;;9173345;19;20542;-67
2023/01/23 16:11:03;;;;;;;21.80;11.55;;;5.60;86.40;;;;;;9173408;19;19923;-69
2023/01/23 16:14:14;;;;;;;21.52;11.93;;;5.60;86.30;;;;;;9176332;19;20022;-69
2023/01/23 16:17:16;;;;;;;23.27;11.73;;;5.50;86.20;;;;;;9170156;19;20042;-69
2023/01/23 16:20:25;;;;;;;24.55;12.88;;;5.50;86.30;;;;;;9181253;19;20360;-69
2023/01/23 16:23:27;;;;;;;19.45;11.02;;;5.50;86.30;;;;;;9190567;19;20018;-69
2023/01/23 16:26:39;;;;;;;20.30;10.27;;;5.50;86.30;;;;;;9173087;19;20769;-69
2023/01/23 16:29:42;;;;;;;22.92;12.10;;;5.50;86.30;;;;;;9174731;19;20640;-66
2023/01/23 16:32:46;;;;;;;19.48;10.95;;;5.50;86.20;;;;;;9177639;19;20010;-67
2023/01/23 16:35:49;;;;;;;21.60;11.45;;;5.50;86.30;;;;;;9184864;19;20022;-68
2023/01/23 16:38:56;;;;;;;20.88;11.00;;;5.50;86.30;;;;;;9189567;19;20355;-67
2023/01/23 16:41:58;;;;;;;24.48;11.55;;;5.40;86.20;;;;;;9178286;19;20086;-67
2023/01/23 16:45:08;;;;;;;;;;;5.50;86.30;;;;;;9186317;19;20014;-67